sensor_id;sensor_type;location;lat;lon;timestamp;P1;durP1;ratioP1;P2;durP2;ratioP2
4389;SDS011;2209;48.982;8.406;2024-02-21T00:00:49;8.67;;;4.63;;
4389;SDS011;2209;48.982;8.406;2024-02-21T00:03:11;11.70;;;4.93;;
4389;SDS011;2209;48.982;8.406;2024-02-21T00:05:35;8.90;;;4.63;;
4389;SDS011;2209;48.982;8.406;2024-02-21T00:07:58;8.40;;;4.73;;
4389;SDS011;2209;48.982;8.406;2024-02-21T00:10:21;8.13;;;5.03;;
4389;SDS011;2209;48.982;8.406;2024-02-21T00:12:43;11.37;;;5.50;;
4389;SDS011;2209;48.982;8.406;2024-02-21T00:15:06;9.57;;;5.30;;
4389;SDS011;2209;48.982;8.406;2024-02-21T00:17:29;8.30;;;4.70;;
4389;SDS011;2209;48.982;8.406;2024-02-21T00:19:51;8.17;;;4.57;;
4389;SDS011;2209;48.982;8.406;2024-02-21T00:22:15;8.00;;;4.30;;
4389;SDS011;2209;48.982;8.406;2024-02-21T00:24:38;11.00;;;4.00;;
4389;SDS011;2209;48.982;8.406;2024-02-21T00:27:00;7.30;;;4.57;;
4389;SDS011;2209;48.982;8.406;2024-02-21T00:29:21;6.37;;;4.20;;
4389;SDS011;2209;48.982;8.406;2024-02-21T00:31:44;7.47;;;5.30;;
4389;SDS011;2209;48.982;8.406;2024-02-21T00:34:06;12.03;;;5.00;;
4389;SDS011;2209;48.982;8.406;2024-02-21T00:36:28;13.43;;;4.00;;
4389;SDS011;2209;48.982;8.406;2024-02-21T00:38:52;9.83;;;4.50;;
4389;SDS011;2209;48.982;8.406;2024-02-21T00:41:15;13.47;;;4.53;;
4389;SDS011;2209;48.982;8.406;2024-02-21T00:43:37;6.77;;;4.90;;
4389;SDS011;2209;48.982;8.406;2024-02-21T00:46:00;7.00;;;4.23;;
4389;SDS011;2209;48.982;8.406;2024-02-21T00:48:22;11.70;;;4.03;;
4389;SDS011;2209;48.982;8.406;2024-02-21T00:50:44;5.90;;;3.60;;
4389;SDS011;2209;48.982;8.406;2024-02-21T00:53:07;10.53;;;4.20;;
4389;SDS011;2209;48.982;8.406;2024-02-21T00:55:31;9.40;;;4.23;;
4389;SDS011;2209;48.982;8.406;2024-02-21T00:57:54;7.93;;;3.77;;
4389;SDS011;2209;48.982;8.406;2024-02-21T01:00:17;9.93;;;4.80;;
4389;SDS011;2209;48.982;8.406;2024-02-21T01:02:40;10.20;;;3.87;;
4389;SDS011;2209;48.982;8.406;2024-02-21T01:05:03;4.63;;;3.70;;
4389;SDS011;2209;48.982;8.406;2024-02-21T01:07:25;7.40;;;3.80;;
4389;SDS011;2209;48.982;8.406;2024-02-21T01:09:48;10.13;;;4.00;;
4389;SDS011;2209;48.982;8.406;2024-02-21T01:12:12;5.63;;;3.50;;
4389;SDS011;2209;48.982;8.406;2024-02-21T01:14:35;7.07;;;4.30;;
4389;SDS011;2209;48.982;8.406;2024-02-21T01:16:57;9.53;;;3.93;;
4389;SDS011;2209;48.982;8.406;2024-02-21T01:19:20;7.60;;;4.17;;
4389;SDS011;2209;48.982;8.406;2024-02-21T01:21:42;8.60;;;4.30;;
4389;SDS011;2209;48.982;8.406;2024-02-21T01:24:04;8.27;;;4.40;;
4389;SDS011;2209;48.982;8.406;2024-02-21T01:26:27;5.77;;;3.77;;
4389;SDS011;2209;48.982;8.406;2024-02-21T01:28:51;8.53;;;3.40;;
4389;SDS011;2209;48.982;8.406;2024-02-21T01:31:13;9.17;;;3.63;;
4389;SDS011;2209;48.982;8.406;2024-02-21T01:33:36;7.40;;;3.80;;
4389;SDS011;2209;48.982;8.406;2024-02-21T01:35:59;7.67;;;4.30;;
4389;SDS011;2209;48.982;8.406;2024-02-21T01:38:22;5.90;;;3.80;;
4389;SDS011;2209;48.982;8.406;2024-02-21T01:40:44;10.20;;;4.13;;
4389;SDS011;2209;48.982;8.406;2024-02-21T01:43:15;8.10;;;4.70;;
4389;SDS011;2209;48.982;8.406;2024-02-21T01:45:39;9.07;;;4.00;;
4389;SDS011;2209;48.982;8.406;2024-02-21T01:48:02;6.33;;;3.53;;
4389;SDS011;2209;48.982;8.406;2024-02-21T01:50:25;8.20;;;3.57;;
4389;SDS011;2209;48.982;8.406;2024-02-21T01:52:48;7.40;;;3.80;;
4389;SDS011;2209;48.982;8.406;2024-02-21T01:55:11;10.63;;;3.63;;
4389;SDS011;2209;48.982;8.406;2024-02-21T01:57:35;6.73;;;3.40;;
4389;SDS011;2209;48.982;8.406;2024-02-21T01:59:59;6.67;;;3.80;;
4389;SDS011;2209;48.982;8.406;2024-02-21T02:02:23;10.33;;;4.70;;
4389;SDS011;2209;48.982;8.406;2024-02-21T02:04:46;4.20;;;3.50;;
4389;SDS011;2209;48.982;8.406;2024-02-21T02:07:08;9.33;;;3.60;;
4389;SDS011;2209;48.982;8.406;2024-02-21T02:09:31;8.00;;;4.00;;
4389;SDS011;2209;48.982;8.406;2024-02-21T02:11:53;5.83;;;3.70;;
4389;SDS011;2209;48.982;8.406;2024-02-21T02:14:16;7.83;;;3.70;;
4389;SDS011;2209;48.982;8.406;2024-02-21T02:16:38;5.77;;;3.33;;
4389;SDS011;2209;48.982;8.406;2024-02-21T02:19:02;9.30;;;4.30;;
4389;SDS011;2209;48.982;8.406;2024-02-21T02:21:27;6.60;;;3.73;;
4389;SDS011;2209;48.982;8.406;2024-02-21T02:23:53;11.23;;;3.87;;
4389;SDS011;2209;48.982;8.406;2024-02-21T02:26:15;11.63;;;4.03;;
4389;SDS011;2209;48.982;8.406;2024-02-21T02:28:38;7.30;;;3.63;;
4389;SDS011;2209;48.982;8.406;2024-02-21T02:31:00;8.80;;;4.40;;
4389;SDS011;2209;48.982;8.406;2024-02-21T02:33:24;9.70;;;4.00;;
4389;SDS011;2209;48.982;8.406;2024-02-21T02:35:46;9.00;;;4.10;;
4389;SDS011;2209;48.982;8.406;2024-02-21T02:38:09;8.87;;;4.40;;
4389;SDS011;2209;48.982;8.406;2024-02-21T02:40:34;13.40;;;4.40;;
4389;SDS011;2209;48.982;8.406;2024-02-21T02:42:57;7.83;;;4.70;;
4389;SDS011;2209;48.982;8.406;2024-02-21T02:45:19;5.97;;;3.87;;
4389;SDS011;2209;48.982;8.406;2024-02-21T02:47:43;7.27;;;3.50;;
4389;SDS011;2209;48.982;8.406;2024-02-21T02:50:06;7.30;;;4.50;;
4389;SDS011;2209;48.982;8.406;2024-02-21T02:52:29;6.53;;;3.63;;
4389;SDS011;2209;48.982;8.406;2024-02-21T02:54:51;6.73;;;3.90;;
4389;SDS011;2209;48.982;8.406;2024-02-21T02:57:17;9.87;;;4.03;;
4389;SDS011;2209;48.982;8.406;2024-02-21T02:59:40;5.17;;;3.60;;
4389;SDS011;2209;48.982;8.406;2024-02-21T03:02:02;7.83;;;3.77;;
4389;SDS011;2209;48.982;8.406;2024-02-21T03:04:25;6.47;;;4.30;;
4389;SDS011;2209;48.982;8.406;2024-02-21T03:06:47;7.87;;;3.60;;
4389;SDS011;2209;48.982;8.406;2024-02-21T03:09:09;8.37;;;4.10;;
4389;SDS011;2209;48.982;8.406;2024-02-21T03:11:33;7.20;;;3.20;;
4389;SDS011;2209;48.982;8.406;2024-02-21T03:13:57;6.57;;;3.80;;
4389;SDS011;2209;48.982;8.406;2024-02-21T03:16:19;5.67;;;4.10;;
4389;SDS011;2209;48.982;8.406;2024-02-21T03:18:41;7.47;;;3.83;;
4389;SDS011;2209;48.982;8.406;2024-02-21T03:21:04;12.03;;;4.13;;
4389;SDS011;2209;48.982;8.406;2024-02-21T03:23:26;10.10;;;4.13;;
4389;SDS011;2209;48.982;8.406;2024-02-21T03:25:49;5.40;;;3.70;;
4389;SDS011;2209;48.982;8.406;2024-02-21T03:28:12;6.00;;;3.80;;
4389;SDS011;2209;48.982;8.406;2024-02-21T03:30:36;6.50;;;4.33;;
4389;SDS011;2209;48.982;8.406;2024-02-21T03:32:58;7.13;;;4.30;;
4389;SDS011;2209;48.982;8.406;2024-02-21T03:35:21;7.47;;;4.30;;
4389;SDS011;2209;48.982;8.406;2024-02-21T03:37:46;11.87;;;3.83;;
4389;SDS011;2209;48.982;8.406;2024-02-21T03:40:09;5.40;;;4.07;;
4389;SDS011;2209;48.982;8.406;2024-02-21T03:42:32;6.93;;;3.30;;
4389;SDS011;2209;48.982;8.406;2024-02-21T03:44:54;6.83;;;4.00;;
4389;SDS011;2209;48.982;8.406;2024-02-21T03:47:18;8.03;;;4.13;;
4389;SDS011;2209;48.982;8.406;2024-02-21T03:49:41;10.10;;;3.80;;
4389;SDS011;2209;48.982;8.406;2024-02-21T03:52:04;4.90;;;3.53;;
4389;SDS011;2209;48.982;8.406;2024-02-21T03:54:26;7.70;;;4.43;;
4389;SDS011;2209;48.982;8.406;2024-02-21T03:56:49;5.70;;;4.00;;
4389;SDS011;2209;48.982;8.406;2024-02-21T03:59:11;6.00;;;3.90;;
4389;SDS011;2209;48.982;8.406;2024-02-21T04:01:33;6.13;;;4.20;;
4389;SDS011;2209;48.982;8.406;2024-02-21T04:03:57;5.00;;;3.90;;
4389;SDS011;2209;48.982;8.406;2024-02-21T04:06:20;6.77;;;3.87;;
4389;SDS011;2209;48.982;8.406;2024-02-21T04:08:42;5.33;;;3.23;;
4389;SDS011;2209;48.982;8.406;2024-02-21T04:11:04;8.57;;;4.27;;
4389;SDS011;2209;48.982;8.406;2024-02-21T04:13:27;6.57;;;4.00;;
4389;SDS011;2209;48.982;8.406;2024-02-21T04:15:49;7.47;;;4.77;;
4389;SDS011;2209;48.982;8.406;2024-02-21T04:18:12;7.53;;;4.03;;
4389;SDS011;2209;48.982;8.406;2024-02-21T04:20:36;4.80;;;3.73;;
4389;SDS011;2209;48.982;8.406;2024-02-21T04:22:59;8.97;;;3.63;;
4389;SDS011;2209;48.982;8.406;2024-02-21T04:25:21;6.97;;;4.10;;
4389;SDS011;2209;48.982;8.406;2024-02-21T04:27:44;9.10;;;3.80;;
4389;SDS011;2209;48.982;8.406;2024-02-21T04:30:06;9.50;;;4.10;;
4389;SDS011;2209;48.982;8.406;2024-02-21T04:32:30;9.03;;;4.27;;
4389;SDS011;2209;48.982;8.406;2024-02-21T04:34:52;6.83;;;3.93;;
4389;SDS011;2209;48.982;8.406;2024-02-21T04:37:16;7.50;;;4.37;;
4389;SDS011;2209;48.982;8.406;2024-02-21T04:39:38;7.90;;;4.30;;
4389;SDS011;2209;48.982;8.406;2024-02-21T04:42:01;7.13;;;3.73;;
4389;SDS011;2209;48.982;8.406;2024-02-21T04:44:23;8.63;;;3.80;;
4389;SDS011;2209;48.982;8.406;2024-02-21T04:46:46;8.00;;;4.70;;
4389;SDS011;2209;48.982;8.406;2024-02-21T04:49:08;6.70;;;4.80;;
4389;SDS011;2209;48.982;8.406;2024-02-21T04:51:31;6.97;;;4.50;;
4389;SDS011;2209;48.982;8.406;2024-02-21T04:53:55;8.77;;;4.50;;
4389;SDS011;2209;48.982;8.406;2024-02-21T04:56:17;8.97;;;4.07;;
4389;SDS011;2209;48.982;8.406;2024-02-21T04:58:39;8.20;;;3.90;;
4389;SDS011;2209;48.982;8.406;2024-02-21T05:01:02;11.00;;;4.70;;
4389;SDS011;2209;48.982;8.406;2024-02-21T05:03:24;10.60;;;4.90;;
4389;SDS011;2209;48.982;8.406;2024-02-21T05:05:47;11.70;;;4.03;;
4389;SDS011;2209;48.982;8.406;2024-02-21T05:08:09;8.63;;;4.70;;
4389;SDS011;2209;48.982;8.406;2024-02-21T05:10:33;4.30;;;3.83;;
4389;SDS011;2209;48.982;8.406;2024-02-21T05:12:55;11.20;;;4.53;;
4389;SDS011;2209;48.982;8.406;2024-02-21T05:15:18;9.60;;;4.27;;
4389;SDS011;2209;48.982;8.406;2024-02-21T05:17:41;6.90;;;4.17;;
4389;SDS011;2209;48.982;8.406;2024-02-21T05:20:04;8.93;;;3.60;;
4389;SDS011;2209;48.982;8.406;2024-02-21T05:22:27;6.37;;;4.50;;
4389;SDS011;2209;48.982;8.406;2024-02-21T05:24:50;8.90;;;4.17;;
4389;SDS011;2209;48.982;8.406;2024-02-21T05:27:14;9.77;;;5.27;;
4389;SDS011;2209;48.982;8.406;2024-02-21T05:29:36;9.73;;;5.13;;
4389;SDS011;2209;48.982;8.406;2024-02-21T05:31:58;10.40;;;5.70;;
4389;SDS011;2209;48.982;8.406;2024-02-21T05:34:21;4.80;;;4.13;;
4389;SDS011;2209;48.982;8.406;2024-02-21T05:36:44;8.57;;;5.40;;
4389;SDS011;2209;48.982;8.406;2024-02-21T05:39:06;8.47;;;4.23;;
4389;SDS011;2209;48.982;8.406;2024-02-21T05:41:29;15.80;;;4.10;;
4389;SDS011;2209;48.982;8.406;2024-02-21T05:43:53;9.90;;;4.40;;
4389;SDS011;2209;48.982;8.406;2024-02-21T05:46:18;8.17;;;4.10;;
4389;SDS011;2209;48.982;8.406;2024-02-21T05:48:41;8.13;;;4.47;;
4389;SDS011;2209;48.982;8.406;2024-02-21T05:51:04;6.80;;;4.03;;
4389;SDS011;2209;48.982;8.406;2024-02-21T05:53:27;6.87;;;3.90;;
4389;SDS011;2209;48.982;8.406;2024-02-21T05:55:49;10.13;;;4.90;;
4389;SDS011;2209;48.982;8.406;2024-02-21T05:58:12;8.07;;;4.33;;
4389;SDS011;2209;48.982;8.406;2024-02-21T06:00:36;7.37;;;4.27;;
4389;SDS011;2209;48.982;8.406;2024-02-21T06:02:59;6.80;;;4.00;;
4389;SDS011;2209;48.982;8.406;2024-02-21T06:05:25;7.57;;;4.60;;
4389;SDS011;2209;48.982;8.406;2024-02-21T06:07:48;7.97;;;5.27;;
4389;SDS011;2209;48.982;8.406;2024-02-21T06:10:11;5.20;;;3.60;;
4389;SDS011;2209;48.982;8.406;2024-02-21T06:12:46;8.13;;;4.33;;
4389;SDS011;2209;48.982;8.406;2024-02-21T06:15:09;8.73;;;5.00;;
4389;SDS011;2209;48.982;8.406;2024-02-21T06:17:33;9.13;;;4.30;;
4389;SDS011;2209;48.982;8.406;2024-02-21T06:19:56;14.27;;;4.30;;
4389;SDS011;2209;48.982;8.406;2024-02-21T06:22:19;6.60;;;4.57;;
4389;SDS011;2209;48.982;8.406;2024-02-21T06:24:42;7.60;;;4.20;;
4389;SDS011;2209;48.982;8.406;2024-02-21T06:27:06;15.43;;;5.57;;
4389;SDS011;2209;48.982;8.406;2024-02-21T06:29:29;4.93;;;3.80;;
4389;SDS011;2209;48.982;8.406;2024-02-21T06:31:51;6.03;;;4.10;;
4389;SDS011;2209;48.982;8.406;2024-02-21T06:34:15;12.83;;;4.10;;
4389;SDS011;2209;48.982;8.406;2024-02-21T06:36:39;6.50;;;4.40;;
4389;SDS011;2209;48.982;8.406;2024-02-21T06:39:04;8.90;;;4.90;;
4389;SDS011;2209;48.982;8.406;2024-02-21T06:41:28;8.07;;;4.90;;
4389;SDS011;2209;48.982;8.406;2024-02-21T06:43:51;10.53;;;4.47;;
4389;SDS011;2209;48.982;8.406;2024-02-21T06:46:22;7.60;;;4.73;;
4389;SDS011;2209;48.982;8.406;2024-02-21T06:48:46;12.70;;;5.27;;
4389;SDS011;2209;48.982;8.406;2024-02-21T06:51:11;4.40;;;4.00;;
4389;SDS011;2209;48.982;8.406;2024-02-21T06:53:34;7.93;;;4.50;;
4389;SDS011;2209;48.982;8.406;2024-02-21T06:55:58;8.40;;;4.83;;
4389;SDS011;2209;48.982;8.406;2024-02-21T06:58:21;6.73;;;4.03;;
4389;SDS011;2209;48.982;8.406;2024-02-21T07:00:45;7.10;;;4.33;;
4389;SDS011;2209;48.982;8.406;2024-02-21T07:03:08;8.53;;;4.63;;
4389;SDS011;2209;48.982;8.406;2024-02-21T07:05:30;9.87;;;4.50;;
4389;SDS011;2209;48.982;8.406;2024-02-21T07:07:54;4.50;;;3.80;;
4389;SDS011;2209;48.982;8.406;2024-02-21T07:10:17;9.77;;;4.27;;
4389;SDS011;2209;48.982;8.406;2024-02-21T07:12:40;6.00;;;4.37;;
4389;SDS011;2209;48.982;8.406;2024-02-21T07:15:04;6.20;;;3.57;;
4389;SDS011;2209;48.982;8.406;2024-02-21T07:17:27;7.23;;;4.03;;
4389;SDS011;2209;48.982;8.406;2024-02-21T07:19:50;6.53;;;4.00;;
4389;SDS011;2209;48.982;8.406;2024-02-21T07:22:14;7.20;;;3.60;;
4389;SDS011;2209;48.982;8.406;2024-02-21T07:24:38;7.57;;;4.43;;
4389;SDS011;2209;48.982;8.406;2024-02-21T07:27:01;12.23;;;4.10;;
4389;SDS011;2209;48.982;8.406;2024-02-21T07:29:25;17.90;;;5.23;;
4389;SDS011;2209;48.982;8.406;2024-02-21T07:31:48;9.87;;;4.00;;
4389;SDS011;2209;48.982;8.406;2024-02-21T07:34:12;5.83;;;3.50;;
4389;SDS011;2209;48.982;8.406;2024-02-21T07:36:35;6.90;;;3.20;;
4389;SDS011;2209;48.982;8.406;2024-02-21T07:38:59;6.63;;;3.60;;
4389;SDS011;2209;48.982;8.406;2024-02-21T07:41:23;8.73;;;3.77;;
4389;SDS011;2209;48.982;8.406;2024-02-21T07:43:46;14.57;;;4.23;;
4389;SDS011;2209;48.982;8.406;2024-02-21T07:46:09;8.20;;;3.53;;
4389;SDS011;2209;48.982;8.406;2024-02-21T07:48:32;7.07;;;3.83;;
4389;SDS011;2209;48.982;8.406;2024-02-21T07:50:55;8.00;;;4.50;;
4389;SDS011;2209;48.982;8.406;2024-02-21T07:53:17;7.60;;;4.07;;
4389;SDS011;2209;48.982;8.406;2024-02-21T07:55:41;13.93;;;4.57;;
4389;SDS011;2209;48.982;8.406;2024-02-21T07:58:05;6.97;;;4.63;;
4389;SDS011;2209;48.982;8.406;2024-02-21T08:00:28;8.87;;;4.00;;
4389;SDS011;2209;48.982;8.406;2024-02-21T08:02:52;12.37;;;4.10;;
4389;SDS011;2209;48.982;8.406;2024-02-21T08:05:14;6.57;;;3.93;;
4389;SDS011;2209;48.982;8.406;2024-02-21T08:07:37;7.30;;;3.70;;
4389;SDS011;2209;48.982;8.406;2024-02-21T08:10:00;7.57;;;3.97;;
4389;SDS011;2209;48.982;8.406;2024-02-21T08:12:23;7.27;;;4.07;;
4389;SDS011;2209;48.982;8.406;2024-02-21T08:14:47;6.93;;;3.77;;
4389;SDS011;2209;48.982;8.406;2024-02-21T08:17:10;7.73;;;3.67;;
4389;SDS011;2209;48.982;8.406;2024-02-21T08:19:33;5.73;;;3.53;;
4389;SDS011;2209;48.982;8.406;2024-02-21T08:21:55;6.33;;;3.80;;
4389;SDS011;2209;48.982;8.406;2024-02-21T08:24:18;10.43;;;3.67;;
4389;SDS011;2209;48.982;8.406;2024-02-21T08:26:43;10.43;;;4.23;;
4389;SDS011;2209;48.982;8.406;2024-02-21T08:29:06;3.80;;;3.37;;
4389;SDS011;2209;48.982;8.406;2024-02-21T08:31:31;3.90;;;3.40;;
4389;SDS011;2209;48.982;8.406;2024-02-21T08:33:54;6.43;;;3.30;;
4389;SDS011;2209;48.982;8.406;2024-02-21T08:36:22;7.57;;;3.73;;
4389;SDS011;2209;48.982;8.406;2024-02-21T08:38:45;8.67;;;4.00;;
4389;SDS011;2209;48.982;8.406;2024-02-21T08:41:08;5.70;;;3.70;;
4389;SDS011;2209;48.982;8.406;2024-02-21T08:43:31;9.60;;;3.77;;
4389;SDS011;2209;48.982;8.406;2024-02-21T08:45:56;6.13;;;3.50;;
4389;SDS011;2209;48.982;8.406;2024-02-21T08:48:21;5.30;;;3.27;;
4389;SDS011;2209;48.982;8.406;2024-02-21T08:50:44;10.30;;;4.50;;
4389;SDS011;2209;48.982;8.406;2024-02-21T08:53:07;5.20;;;3.40;;
4389;SDS011;2209;48.982;8.406;2024-02-21T08:55:30;4.43;;;3.63;;
4389;SDS011;2209;48.982;8.406;2024-02-21T08:57:52;8.57;;;4.27;;
4389;SDS011;2209;48.982;8.406;2024-02-21T09:00:15;9.63;;;4.17;;
4389;SDS011;2209;48.982;8.406;2024-02-21T09:02:39;8.60;;;4.10;;
4389;SDS011;2209;48.982;8.406;2024-02-21T09:05:05;7.70;;;3.90;;
4389;SDS011;2209;48.982;8.406;2024-02-21T09:07:28;5.13;;;3.60;;
4389;SDS011;2209;48.982;8.406;2024-02-21T09:09:51;9.60;;;4.43;;
4389;SDS011;2209;48.982;8.406;2024-02-21T09:12:14;6.83;;;4.27;;
4389;SDS011;2209;48.982;8.406;2024-02-21T09:14:37;8.50;;;4.30;;
4389;SDS011;2209;48.982;8.406;2024-02-21T09:17:00;5.20;;;3.80;;
4389;SDS011;2209;48.982;8.406;2024-02-21T09:19:23;7.83;;;4.00;;
4389;SDS011;2209;48.982;8.406;2024-02-21T09:21:47;10.50;;;4.23;;
4389;SDS011;2209;48.982;8.406;2024-02-21T09:24:09;9.70;;;3.80;;
4389;SDS011;2209;48.982;8.406;2024-02-21T09:26:31;8.17;;;4.30;;
4389;SDS011;2209;48.982;8.406;2024-02-21T09:28:55;7.33;;;4.23;;
4389;SDS011;2209;48.982;8.406;2024-02-21T09:31:17;6.97;;;3.83;;
4389;SDS011;2209;48.982;8.406;2024-02-21T09:33:55;6.77;;;4.17;;
4389;SDS011;2209;48.982;8.406;2024-02-21T09:36:18;6.73;;;3.87;;
4389;SDS011;2209;48.982;8.406;2024-02-21T09:38:43;6.97;;;4.00;;
4389;SDS011;2209;48.982;8.406;2024-02-21T09:41:08;7.30;;;4.80;;
4389;SDS011;2209;48.982;8.406;2024-02-21T09:43:38;9.60;;;4.30;;
4389;SDS011;2209;48.982;8.406;2024-02-21T09:46:03;6.30;;;3.43;;
4389;SDS011;2209;48.982;8.406;2024-02-21T09:48:29;6.10;;;3.50;;
4389;SDS011;2209;48.982;8.406;2024-02-21T09:51:02;6.10;;;3.40;;
4389;SDS011;2209;48.982;8.406;2024-02-21T09:53:25;7.00;;;3.23;;
4389;SDS011;2209;48.982;8.406;2024-02-21T09:55:51;7.20;;;3.40;;
4389;SDS011;2209;48.982;8.406;2024-02-21T09:58:14;6.80;;;3.43;;
4389;SDS011;2209;48.982;8.406;2024-02-21T10:00:38;5.43;;;3.27;;
4389;SDS011;2209;48.982;8.406;2024-02-21T10:03:01;5.80;;;3.50;;
4389;SDS011;2209;48.982;8.406;2024-02-21T10:05:26;4.23;;;3.13;;
4389;SDS011;2209;48.982;8.406;2024-02-21T10:07:49;9.17;;;3.40;;
4389;SDS011;2209;48.982;8.406;2024-02-21T10:10:11;8.63;;;3.70;;
4389;SDS011;2209;48.982;8.406;2024-02-21T10:12:36;10.50;;;3.97;;
4389;SDS011;2209;48.982;8.406;2024-02-21T10:15:09;9.80;;;3.73;;
4389;SDS011;2209;48.982;8.406;2024-02-21T10:17:32;7.47;;;3.50;;
4389;SDS011;2209;48.982;8.406;2024-02-21T10:19:55;6.30;;;3.40;;
4389;SDS011;2209;48.982;8.406;2024-02-21T10:22:28;7.60;;;3.60;;
4389;SDS011;2209;48.982;8.406;2024-02-21T10:24:56;5.33;;;3.27;;
4389;SDS011;2209;48.982;8.406;2024-02-21T10:27:29;9.40;;;4.07;;
4389;SDS011;2209;48.982;8.406;2024-02-21T10:29:54;14.73;;;3.43;;
4389;SDS011;2209;48.982;8.406;2024-02-21T10:32:16;6.20;;;3.50;;
4389;SDS011;2209;48.982;8.406;2024-02-21T10:34:39;5.57;;;3.40;;
4389;SDS011;2209;48.982;8.406;2024-02-21T10:37:03;8.60;;;3.60;;
4389;SDS011;2209;48.982;8.406;2024-02-21T10:39:27;8.97;;;3.70;;
4389;SDS011;2209;48.982;8.406;2024-02-21T10:41:50;7.70;;;3.20;;
4389;SDS011;2209;48.982;8.406;2024-02-21T10:44:14;8.37;;;3.27;;
4389;SDS011;2209;48.982;8.406;2024-02-21T10:46:39;5.63;;;3.40;;
4389;SDS011;2209;48.982;8.406;2024-02-21T10:49:06;10.83;;;3.93;;
4389;SDS011;2209;48.982;8.406;2024-02-21T10:51:35;3.90;;;2.80;;
4389;SDS011;2209;48.982;8.406;2024-02-21T10:54:06;7.87;;;3.10;;
4389;SDS011;2209;48.982;8.406;2024-02-21T10:56:38;5.07;;;2.83;;
4389;SDS011;2209;48.982;8.406;2024-02-21T10:59:04;8.30;;;3.17;;
4389;SDS011;2209;48.982;8.406;2024-02-21T11:01:28;5.03;;;3.03;;
4389;SDS011;2209;48.982;8.406;2024-02-21T11:03:58;8.33;;;3.10;;
4389;SDS011;2209;48.982;8.406;2024-02-21T11:06:24;5.50;;;2.83;;
4389;SDS011;2209;48.982;8.406;2024-02-21T11:08:59;8.50;;;2.90;;
4389;SDS011;2209;48.982;8.406;2024-02-21T11:11:23;4.70;;;2.87;;
4389;SDS011;2209;48.982;8.406;2024-02-21T11:13:47;7.30;;;2.80;;
4389;SDS011;2209;48.982;8.406;2024-02-21T11:16:11;3.90;;;2.50;;
4389;SDS011;2209;48.982;8.406;2024-02-21T11:18:42;6.87;;;2.37;;
4389;SDS011;2209;48.982;8.406;2024-02-21T11:21:07;4.83;;;2.13;;
4389;SDS011;2209;48.982;8.406;2024-02-21T11:23:30;6.53;;;2.53;;
4389;SDS011;2209;48.982;8.406;2024-02-21T11:25:52;4.40;;;2.60;;
4389;SDS011;2209;48.982;8.406;2024-02-21T11:28:25;10.43;;;2.43;;
4389;SDS011;2209;48.982;8.406;2024-02-21T11:30:49;5.43;;;3.27;;
4389;SDS011;2209;48.982;8.406;2024-02-21T11:33:12;8.80;;;3.40;;
4389;SDS011;2209;48.982;8.406;2024-02-21T11:35:35;6.70;;;2.43;;
4389;SDS011;2209;48.982;8.406;2024-02-21T11:38:08;5.10;;;2.10;;
4389;SDS011;2209;48.982;8.406;2024-02-21T11:40:35;4.87;;;2.23;;
4389;SDS011;2209;48.982;8.406;2024-02-21T11:43:00;3.10;;;2.43;;
4389;SDS011;2209;48.982;8.406;2024-02-21T11:45:25;7.23;;;2.83;;
4389;SDS011;2209;48.982;8.406;2024-02-21T11:47:48;3.10;;;2.30;;
4389;SDS011;2209;48.982;8.406;2024-02-21T11:50:13;6.80;;;3.33;;
4389;SDS011;2209;48.982;8.406;2024-02-21T11:52:37;3.50;;;2.50;;
4389;SDS011;2209;48.982;8.406;2024-02-21T11:55:01;6.93;;;2.97;;
4389;SDS011;2209;48.982;8.406;2024-02-21T11:57:26;4.37;;;2.73;;
4389;SDS011;2209;48.982;8.406;2024-02-21T11:59:49;4.43;;;2.77;;
4389;SDS011;2209;48.982;8.406;2024-02-21T12:02:15;6.40;;;2.30;;
4389;SDS011;2209;48.982;8.406;2024-02-21T12:04:43;4.13;;;2.40;;
4389;SDS011;2209;48.982;8.406;2024-02-21T12:07:07;2.83;;;1.90;;
4389;SDS011;2209;48.982;8.406;2024-02-21T12:09:30;4.80;;;2.63;;
4389;SDS011;2209;48.982;8.406;2024-02-21T12:11:58;5.53;;;2.37;;
4389;SDS011;2209;48.982;8.406;2024-02-21T12:14:22;3.83;;;2.27;;
4389;SDS011;2209;48.982;8.406;2024-02-21T12:16:47;2.93;;;1.97;;
4389;SDS011;2209;48.982;8.406;2024-02-21T12:19:11;4.17;;;2.30;;
4389;SDS011;2209;48.982;8.406;2024-02-21T12:21:37;3.67;;;2.40;;
4389;SDS011;2209;48.982;8.406;2024-02-21T12:24:11;3.73;;;2.20;;
4389;SDS011;2209;48.982;8.406;2024-02-21T12:26:35;3.80;;;2.20;;
4389;SDS011;2209;48.982;8.406;2024-02-21T12:28:59;6.07;;;2.50;;
4389;SDS011;2209;48.982;8.406;2024-02-21T12:31:22;6.37;;;2.60;;
4389;SDS011;2209;48.982;8.406;2024-02-21T12:33:45;5.47;;;2.70;;
4389;SDS011;2209;48.982;8.406;2024-02-21T12:36:09;2.77;;;2.50;;
4389;SDS011;2209;48.982;8.406;2024-02-21T12:38:31;4.60;;;2.70;;
4389;SDS011;2209;48.982;8.406;2024-02-21T12:40:54;4.27;;;2.57;;
4389;SDS011;2209;48.982;8.406;2024-02-21T12:43:17;5.60;;;2.73;;
4389;SDS011;2209;48.982;8.406;2024-02-21T12:45:41;5.47;;;2.53;;
4389;SDS011;2209;48.982;8.406;2024-02-21T12:48:04;6.20;;;2.60;;
4389;SDS011;2209;48.982;8.406;2024-02-21T12:50:28;6.40;;;2.87;;
4389;SDS011;2209;48.982;8.406;2024-02-21T12:52:51;2.40;;;2.20;;
4389;SDS011;2209;48.982;8.406;2024-02-21T12:55:14;3.70;;;2.20;;
4389;SDS011;2209;48.982;8.406;2024-02-21T12:57:37;5.00;;;2.50;;
4389;SDS011;2209;48.982;8.406;2024-02-21T13:00:01;4.63;;;3.03;;
4389;SDS011;2209;48.982;8.406;2024-02-21T13:02:31;7.73;;;3.53;;
4389;SDS011;2209;48.982;8.406;2024-02-21T13:04:54;11.27;;;3.60;;
4389;SDS011;2209;48.982;8.406;2024-02-21T13:07:21;6.57;;;3.20;;
4389;SDS011;2209;48.982;8.406;2024-02-21T13:09:44;5.50;;;2.60;;
4389;SDS011;2209;48.982;8.406;2024-02-21T13:12:07;5.43;;;2.40;;
4389;SDS011;2209;48.982;8.406;2024-02-21T13:14:32;8.70;;;2.57;;
4389;SDS011;2209;48.982;8.406;2024-02-21T13:16:55;6.83;;;2.70;;
4389;SDS011;2209;48.982;8.406;2024-02-21T13:19:19;9.83;;;2.80;;
4389;SDS011;2209;48.982;8.406;2024-02-21T13:21:42;6.83;;;2.90;;
4389;SDS011;2209;48.982;8.406;2024-02-21T13:24:05;7.83;;;3.00;;
4389;SDS011;2209;48.982;8.406;2024-02-21T13:26:28;3.00;;;2.63;;
4389;SDS011;2209;48.982;8.406;2024-02-21T13:28:51;3.73;;;2.57;;
4389;SDS011;2209;48.982;8.406;2024-02-21T13:31:14;6.53;;;3.03;;
4389;SDS011;2209;48.982;8.406;2024-02-21T13:33:38;6.00;;;2.77;;
4389;SDS011;2209;48.982;8.406;2024-02-21T13:36:02;7.60;;;2.77;;
4389;SDS011;2209;48.982;8.406;2024-02-21T13:38:26;6.10;;;2.73;;
4389;SDS011;2209;48.982;8.406;2024-02-21T13:40:49;5.27;;;2.60;;
4389;SDS011;2209;48.982;8.406;2024-02-21T13:43:11;6.23;;;2.57;;
4389;SDS011;2209;48.982;8.406;2024-02-21T13:45:34;8.23;;;3.03;;
4389;SDS011;2209;48.982;8.406;2024-02-21T13:47:57;8.30;;;2.77;;
4389;SDS011;2209;48.982;8.406;2024-02-21T13:50:21;2.73;;;2.30;;
4389;SDS011;2209;48.982;8.406;2024-02-21T13:52:47;5.67;;;3.10;;
4389;SDS011;2209;48.982;8.406;2024-02-21T13:55:10;8.20;;;2.67;;
4389;SDS011;2209;48.982;8.406;2024-02-21T13:57:33;4.37;;;2.73;;
4389;SDS011;2209;48.982;8.406;2024-02-21T13:59:55;3.90;;;2.40;;
4389;SDS011;2209;48.982;8.406;2024-02-21T14:02:20;6.17;;;2.77;;
4389;SDS011;2209;48.982;8.406;2024-02-21T14:04:43;3.97;;;2.63;;
4389;SDS011;2209;48.982;8.406;2024-02-21T14:07:06;4.37;;;2.20;;
4389;SDS011;2209;48.982;8.406;2024-02-21T14:09:30;3.70;;;2.53;;
4389;SDS011;2209;48.982;8.406;2024-02-21T14:11:54;4.67;;;2.50;;
4389;SDS011;2209;48.982;8.406;2024-02-21T14:14:17;3.27;;;2.10;;
4389;SDS011;2209;48.982;8.406;2024-02-21T14:16:39;6.70;;;2.50;;
4389;SDS011;2209;48.982;8.406;2024-02-21T14:19:02;7.57;;;2.50;;
4389;SDS011;2209;48.982;8.406;2024-02-21T14:21:25;3.40;;;2.27;;
4389;SDS011;2209;48.982;8.406;2024-02-21T14:23:50;4.73;;;2.97;;
4389;SDS011;2209;48.982;8.406;2024-02-21T14:26:15;5.80;;;2.90;;
4389;SDS011;2209;48.982;8.406;2024-02-21T14:28:38;3.03;;;2.73;;
4389;SDS011;2209;48.982;8.406;2024-02-21T14:31:00;5.93;;;2.53;;
4389;SDS011;2209;48.982;8.406;2024-02-21T14:33:24;3.97;;;2.60;;
4389;SDS011;2209;48.982;8.406;2024-02-21T14:35:47;5.50;;;2.77;;
4389;SDS011;2209;48.982;8.406;2024-02-21T14:38:10;4.73;;;2.60;;
4389;SDS011;2209;48.982;8.406;2024-02-21T14:40:36;5.27;;;2.90;;
4389;SDS011;2209;48.982;8.406;2024-02-21T14:43:00;3.60;;;2.67;;
4389;SDS011;2209;48.982;8.406;2024-02-21T14:45:23;3.53;;;2.77;;
4389;SDS011;2209;48.982;8.406;2024-02-21T14:47:48;4.57;;;3.27;;
4389;SDS011;2209;48.982;8.406;2024-02-21T14:50:18;6.50;;;2.90;;